createdAt,value
2023-09-17T00:01:24.490Z,6.03
2023-09-17T00:03:53.431Z,6.17
2023-09-17T00:06:21.777Z,5.78
2023-09-17T00:08:49.019Z,5.70
2023-09-17T00:11:16.305Z,6.20
2023-09-17T00:13:43.553Z,5.83
2023-09-17T00:16:11.797Z,5.73
2023-09-17T00:18:39.420Z,5.97
2023-09-17T00:21:07.614Z,6.87
2023-09-17T00:23:35.053Z,6.20
2023-09-17T00:26:02.540Z,6.63
2023-09-17T00:28:29.745Z,6.97
2023-09-17T00:30:57.015Z,6.73
2023-09-17T00:33:24.430Z,7.23
2023-09-17T00:35:51.582Z,7.00
2023-09-17T00:38:18.757Z,6.55
2023-09-17T00:40:46.009Z,6.37
2023-09-17T00:43:13.344Z,6.20
2023-09-17T00:45:42.744Z,6.00
2023-09-17T00:48:10.448Z,6.20
2023-09-17T00:50:40.406Z,5.90
2023-09-17T00:53:08.216Z,6.23
2023-09-17T00:55:36.194Z,6.57
2023-09-17T00:58:05.365Z,6.30
2023-09-17T01:00:34.698Z,5.63
2023-09-17T01:03:03.685Z,5.77
2023-09-17T01:05:37.987Z,5.50
2023-09-17T01:08:08.898Z,5.93
2023-09-17T01:10:36.107Z,5.63
2023-09-17T01:13:06.004Z,5.73
2023-09-17T01:15:35.179Z,6.13
2023-09-17T01:18:03.626Z,6.07
2023-09-17T01:20:34.822Z,6.83
2023-09-17T01:23:05.786Z,6.00
2023-09-17T01:25:43.611Z,6.37
2023-09-17T01:28:14.506Z,6.40
2023-09-17T01:30:42.951Z,6.03
2023-09-17T01:33:11.019Z,6.07
2023-09-17T01:35:45.259Z,6.20
2023-09-17T01:38:14.716Z,6.00
2023-09-17T01:40:42.959Z,5.43
2023-09-17T01:43:10.317Z,5.70
2023-09-17T01:45:38.007Z,5.83
2023-09-17T01:48:05.641Z,5.67
2023-09-17T01:50:33.470Z,5.70
2023-09-17T01:53:00.733Z,5.83
2023-09-17T01:55:28.078Z,5.87
2023-09-17T01:57:55.245Z,5.93
2023-09-17T02:00:22.442Z,6.20
2023-09-17T02:02:51.786Z,6.10
2023-09-17T02:05:21.592Z,5.30
2023-09-17T02:07:49.226Z,5.50
2023-09-17T02:10:16.538Z,5.30
2023-09-17T02:12:43.718Z,5.90
2023-09-17T02:15:10.912Z,5.70
2023-09-17T02:17:38.157Z,5.63
2023-09-17T02:20:09.590Z,5.93
2023-09-17T02:22:36.919Z,5.93
2023-09-17T02:25:04.984Z,5.80
2023-09-17T02:27:32.151Z,5.90
2023-09-17T02:29:59.297Z,5.67
2023-09-17T02:32:26.709Z,5.20
2023-09-17T02:34:53.866Z,5.17
2023-09-17T02:37:21.415Z,5.40
2023-09-17T02:39:48.612Z,5.60
2023-09-17T02:42:15.824Z,5.47
2023-09-17T02:44:43.508Z,5.13
2023-09-17T02:47:11.614Z,5.03
2023-09-17T02:49:38.859Z,5.23
2023-09-17T02:52:07.847Z,5.20
2023-09-17T02:54:35.694Z,5.60
2023-09-17T02:57:03.463Z,5.10
2023-09-17T02:59:30.620Z,5.37
2023-09-17T03:01:57.985Z,5.57
2023-09-17T03:04:27.673Z,5.03
2023-09-17T03:06:55.092Z,5.07
2023-09-17T03:09:22.271Z,5.07
2023-09-17T03:11:49.414Z,5.00
2023-09-17T03:14:17.196Z,5.70
2023-09-17T03:16:44.749Z,5.47
2023-09-17T03:19:13.553Z,5.43
2023-09-17T03:21:42.189Z,5.30
2023-09-17T03:24:10.185Z,5.77
2023-09-17T03:26:40.394Z,5.43
2023-09-17T03:29:08.991Z,5.50
2023-09-17T03:31:38.085Z,5.60
2023-09-17T03:34:05.348Z,6.00
2023-09-17T03:36:32.526Z,6.00
2023-09-17T03:39:01.596Z,5.70
2023-09-17T03:41:28.762Z,6.43
2023-09-17T03:43:56.346Z,6.10
2023-09-17T03:46:23.650Z,6.07
2023-09-17T03:48:50.830Z,6.40
2023-09-17T03:51:17.944Z,6.13
2023-09-17T03:53:46.461Z,6.00
2023-09-17T03:56:13.745Z,5.87
2023-09-17T03:58:40.909Z,6.30
2023-09-17T04:01:09.467Z,6.00
2023-09-17T04:03:37.861Z,6.00
2023-09-17T04:06:06.001Z,6.60
2023-09-17T04:08:33.215Z,6.30
2023-09-17T04:11:00.496Z,6.23
2023-09-17T04:13:28.908Z,5.80
2023-09-17T04:15:56.104Z,6.30
2023-09-17T04:18:23.417Z,6.70
2023-09-17T04:20:50.597Z,6.73
2023-09-17T04:23:17.821Z,6.47
2023-09-17T04:25:46.159Z,5.97
2023-09-17T04:28:13.385Z,6.20
2023-09-17T04:30:40.583Z,6.00
2023-09-17T04:33:07.764Z,6.33
2023-09-17T04:35:34.983Z,6.60
2023-09-17T04:38:02.142Z,6.63
2023-09-17T04:40:29.762Z,6.07
2023-09-17T04:42:57.357Z,6.67
2023-09-17T04:45:34.954Z,6.23
2023-09-17T04:48:02.321Z,6.10
2023-09-17T04:50:29.945Z,6.43
2023-09-17T04:52:57.535Z,6.43
2023-09-17T04:55:26.240Z,6.77
2023-09-17T04:57:53.647Z,6.93
2023-09-17T05:00:21.578Z,6.70
2023-09-17T05:02:50.264Z,7.00
2023-09-17T05:05:21.061Z,6.80
2023-09-17T05:07:49.863Z,6.73
2023-09-17T05:10:17.997Z,7.60
2023-09-17T05:12:45.302Z,7.43
2023-09-17T05:15:13.038Z,7.17
2023-09-17T05:17:40.536Z,7.20
2023-09-17T05:20:08.284Z,6.93
2023-09-17T05:22:38.506Z,6.97
2023-09-17T05:25:07.915Z,7.40
2023-09-17T05:27:35.083Z,7.57
2023-09-17T05:30:02.340Z,7.03
2023-09-17T05:32:30.206Z,7.13
2023-09-17T05:35:01.017Z,7.43
2023-09-17T05:37:28.772Z,7.13
2023-09-17T05:39:55.963Z,7.27
2023-09-17T05:42:23.111Z,7.30
2023-09-17T05:44:50.541Z,6.77
2023-09-17T05:47:17.694Z,6.50
2023-09-17T05:49:45.081Z,6.60
2023-09-17T05:52:12.250Z,6.33
2023-09-17T05:54:39.497Z,6.23
2023-09-17T05:57:06.625Z,5.97
2023-09-17T05:59:34.187Z,5.53
2023-09-17T06:02:01.427Z,5.32
2023-09-17T06:04:28.793Z,5.25
2023-09-17T06:06:56.122Z,4.70
2023-09-17T06:09:23.325Z,4.90
2023-09-17T06:11:51.649Z,4.65
2023-09-17T06:14:18.881Z,4.60
2023-09-17T06:16:56.512Z,4.57
2023-09-17T06:19:25.716Z,3.90
2023-09-17T06:21:53.579Z,4.82
2023-09-17T06:24:20.713Z,4.32
2023-09-17T06:26:47.910Z,4.05
2023-09-17T06:29:15.051Z,3.70
2023-09-17T06:31:42.351Z,4.50
2023-09-17T06:34:10.593Z,4.50
2023-09-17T06:36:38.047Z,4.10
2023-09-17T06:39:05.597Z,4.47
2023-09-17T06:41:33.748Z,4.13
2023-09-17T06:44:02.604Z,4.07
2023-09-17T06:46:30.825Z,4.10
2023-09-17T06:48:58.099Z,3.95
2023-09-17T06:51:25.317Z,4.10
2023-09-17T06:53:52.865Z,4.10
2023-09-17T06:56:20.259Z,4.15
2023-09-17T06:58:47.430Z,3.85
2023-09-17T07:01:14.698Z,4.40
2023-09-17T07:03:41.909Z,4.30
2023-09-17T07:06:09.019Z,4.35
2023-09-17T07:08:36.280Z,4.63
2023-09-17T07:11:05.279Z,4.45
2023-09-17T07:13:33.076Z,5.03
2023-09-17T07:16:00.429Z,4.25
2023-09-17T07:18:31.285Z,4.75
2023-09-17T07:20:58.396Z,4.68
2023-09-17T07:23:26.477Z,5.20
2023-09-17T07:25:53.677Z,4.82
2023-09-17T07:28:21.812Z,4.72
2023-09-17T07:30:54.135Z,4.40
2023-09-17T07:33:21.306Z,4.22
2023-09-17T07:35:49.181Z,4.55
2023-09-17T07:38:17.124Z,4.15
2023-09-17T07:40:44.446Z,4.45
2023-09-17T07:43:11.972Z,4.32
2023-09-17T07:45:39.129Z,4.10
2023-09-17T07:48:06.665Z,4.55
2023-09-17T07:50:33.970Z,3.72
2023-09-17T07:53:01.166Z,3.83
2023-09-17T07:55:28.432Z,4.63
2023-09-17T07:57:56.041Z,4.50
2023-09-17T08:00:23.235Z,4.07
2023-09-17T08:02:50.737Z,4.38
2023-09-17T08:05:18.947Z,3.85
2023-09-17T08:07:46.887Z,4.53
2023-09-17T08:10:14.372Z,4.20
2023-09-17T08:12:41.546Z,4.32
2023-09-17T08:18:37.970Z,4.47
2023-09-17T08:21:05.338Z,4.28
2023-09-17T08:23:32.536Z,3.85
2023-09-17T08:26:00.410Z,4.40
2023-09-17T08:28:29.127Z,4.00
2023-09-17T08:30:56.378Z,4.13
2023-09-17T08:33:23.580Z,4.43
2023-09-17T08:35:50.776Z,4.82
2023-09-17T08:38:19.824Z,4.50
2023-09-17T08:40:47.727Z,4.20
2023-09-17T08:43:15.263Z,4.78
2023-09-17T08:45:42.932Z,4.35
2023-09-17T08:48:10.250Z,4.00
2023-09-17T08:50:37.955Z,4.35
2023-09-17T08:53:07.964Z,3.90
2023-09-17T08:55:35.301Z,4.80
2023-09-17T08:58:12.214Z,3.97
2023-09-17T09:00:41.666Z,4.65
2023-09-17T09:03:10.008Z,4.00
2023-09-17T09:05:38.328Z,4.70
2023-09-17T09:08:06.166Z,4.63
2023-09-17T09:10:33.515Z,4.20
2023-09-17T09:13:01.258Z,4.70
2023-09-17T09:15:28.816Z,4.25
2023-09-17T09:17:58.816Z,4.50
2023-09-17T09:20:26.305Z,4.70
2023-09-17T09:22:53.467Z,4.32
2023-09-17T09:25:20.623Z,4.32
2023-09-17T09:27:47.773Z,4.47
2023-09-17T09:30:16.146Z,4.47
2023-09-17T09:32:44.134Z,4.20
2023-09-17T09:35:11.911Z,4.25
2023-09-17T09:37:39.159Z,3.83
2023-09-17T09:40:06.725Z,4.10
2023-09-17T09:42:34.012Z,4.30
2023-09-17T09:45:01.178Z,4.05
2023-09-17T09:47:28.411Z,4.32
2023-09-17T09:53:18.017Z,3.70
2023-09-17T09:55:45.245Z,3.60
2023-09-17T09:58:12.418Z,3.50
2023-09-17T10:00:45.890Z,3.90
2023-09-17T10:03:18.520Z,3.60
2023-09-17T10:05:46.112Z,3.60
2023-09-17T10:08:14.137Z,3.40
2023-09-17T10:10:42.744Z,3.45
2023-09-17T10:13:13.136Z,3.45
2023-09-17T10:15:44.680Z,3.10
2023-09-17T10:18:13.574Z,3.25
2023-09-17T10:20:44.708Z,3.55
2023-09-17T10:23:14.079Z,3.15
2023-09-17T10:25:44.227Z,3.60
2023-09-17T10:28:15.647Z,3.42
2023-09-17T10:30:45.121Z,3.70
2023-09-17T10:33:14.315Z,3.33
2023-09-17T10:35:42.022Z,3.30
2023-09-17T10:38:10.493Z,3.47
2023-09-17T10:40:38.781Z,3.30
2023-09-17T10:43:07.304Z,3.42
2023-09-17T10:45:38.669Z,3.42
2023-09-17T10:48:06.239Z,3.65
2023-09-17T10:50:38.000Z,3.97
2023-09-17T10:53:06.182Z,3.50
2023-09-17T10:55:37.739Z,3.38
2023-09-17T10:58:11.078Z,3.65
2023-09-17T11:00:40.811Z,3.58
2023-09-17T11:03:08.487Z,3.60
2023-09-17T11:05:36.461Z,3.08
2023-09-17T11:08:05.857Z,2.90
2023-09-17T11:10:33.320Z,3.13
2023-09-17T11:13:00.988Z,3.10
2023-09-17T11:15:28.340Z,2.90
2023-09-17T11:18:02.809Z,2.92
2023-09-17T11:20:30.347Z,2.70
2023-09-17T11:22:58.196Z,3.05
2023-09-17T11:25:35.362Z,2.70
2023-09-17T11:28:12.622Z,2.53
2023-09-17T11:30:59.789Z,2.35
2023-09-17T11:33:27.869Z,2.55
2023-09-17T11:35:59.014Z,2.50
2023-09-17T11:38:26.569Z,2.30
2023-09-17T11:41:03.697Z,2.38
2023-09-17T11:43:31.348Z,2.63
2023-09-17T11:45:59.933Z,2.83
2023-09-17T11:48:27.575Z,2.40
2023-09-17T11:51:14.656Z,2.47
2023-09-17T11:53:58.404Z,2.67
2023-09-17T11:56:26.955Z,2.50
2023-09-17T11:59:00.412Z,2.25
2023-09-17T12:01:29.985Z,2.53
2023-09-17T12:03:58.913Z,2.45
2023-09-17T12:06:27.953Z,2.40
2023-09-17T12:08:57.213Z,2.40
2023-09-17T12:11:24.396Z,2.50
2023-09-17T12:13:54.985Z,2.33
2023-09-17T12:16:25.948Z,2.60
2023-09-17T12:19:11.672Z,2.35
2023-09-17T12:21:45.779Z,2.40
2023-09-17T12:24:24.734Z,2.50
2023-09-17T12:27:08.176Z,2.63
2023-09-17T12:29:35.641Z,2.47
2023-09-17T12:32:03.764Z,2.33
2023-09-17T12:34:31.136Z,2.50
2023-09-17T12:36:58.628Z,2.50
2023-09-17T12:39:25.792Z,2.45
2023-09-17T12:41:53.678Z,2.25
2023-09-17T12:44:21.009Z,2.38
2023-09-17T12:46:48.740Z,2.72
2023-09-17T12:49:15.963Z,2.30
2023-09-17T12:51:43.160Z,2.42
2023-09-17T12:54:10.466Z,2.42
2023-09-17T12:56:38.215Z,2.40
2023-09-17T12:59:05.444Z,2.55
2023-09-17T13:01:32.793Z,2.55
2023-09-17T13:04:03.069Z,2.65
2023-09-17T13:06:34.135Z,2.45
2023-09-17T13:09:03.405Z,2.75
2023-09-17T13:11:30.807Z,2.78
2023-09-17T13:13:59.085Z,2.53
2023-09-17T13:16:26.433Z,7.82
2023-09-17T13:18:53.663Z,3.40
2023-09-17T13:21:20.872Z,2.88
2023-09-17T13:23:50.086Z,2.65
2023-09-17T13:26:17.623Z,2.58
2023-09-17T13:28:44.840Z,2.63
2023-09-17T13:31:12.248Z,2.50
2023-09-17T13:33:40.240Z,2.78
2023-09-17T13:36:08.792Z,2.60
2023-09-17T13:38:36.006Z,2.83
2023-09-17T13:41:04.256Z,2.50
2023-09-17T13:43:31.479Z,2.40
2023-09-17T13:46:03.002Z,2.45
2023-09-17T13:48:30.844Z,2.85
2023-09-17T13:50:58.207Z,2.60
2023-09-17T13:53:25.568Z,2.80
2023-09-17T13:55:52.822Z,2.50
2023-09-17T13:58:19.959Z,2.25
2023-09-17T14:00:47.260Z,3.45
2023-09-17T14:03:15.263Z,3.53
2023-09-17T14:05:43.116Z,2.45
2023-09-17T14:08:10.920Z,2.60
2023-09-17T14:10:38.498Z,2.70
2023-09-17T14:13:06.018Z,2.80
2023-09-17T14:15:37.193Z,2.35
2023-09-17T14:18:04.467Z,2.90
2023-09-17T14:20:31.843Z,2.67
2023-09-17T14:22:59.013Z,2.40
2023-09-17T14:25:26.296Z,2.47
2023-09-17T14:27:53.511Z,2.17
2023-09-17T14:30:23.956Z,2.53
2023-09-17T14:32:52.653Z,2.50
2023-09-17T14:35:20.000Z,2.38
2023-09-17T14:37:47.893Z,2.35
2023-09-17T14:40:16.921Z,2.38
2023-09-17T14:42:44.197Z,2.35
2023-09-17T14:45:11.556Z,2.65
2023-09-17T14:47:43.432Z,2.63
2023-09-17T14:50:11.413Z,2.38
2023-09-17T14:52:38.949Z,2.60
2023-09-17T14:55:06.525Z,2.10
2023-09-17T14:57:37.022Z,2.47
2023-09-17T15:00:05.888Z,2.33
2023-09-17T15:02:33.619Z,2.50
2023-09-17T15:05:01.738Z,2.60
2023-09-17T15:07:28.995Z,2.30
2023-09-17T15:09:56.153Z,2.78
2023-09-17T15:12:23.531Z,2.30
2023-09-17T15:14:50.807Z,2.42
2023-09-17T15:17:18.292Z,2.50
2023-09-17T15:19:45.477Z,2.63
2023-09-17T15:22:12.627Z,2.10
2023-09-17T15:24:39.752Z,2.50
2023-09-17T15:27:06.907Z,2.28
2023-09-17T15:29:34.065Z,2.13
2023-09-17T15:32:01.305Z,2.40
2023-09-17T15:34:29.699Z,2.35
2023-09-17T15:36:56.972Z,2.30
2023-09-17T15:39:26.072Z,2.20
2023-09-17T15:41:55.050Z,2.40
2023-09-17T15:44:23.934Z,2.55
2023-09-17T15:46:51.336Z,2.30
2023-09-17T15:49:18.608Z,2.42
2023-09-17T15:51:45.799Z,2.20
2023-09-17T15:54:13.021Z,2.70
2023-09-17T15:56:40.248Z,2.97
2023-09-17T15:59:07.518Z,2.72
2023-09-17T16:01:34.848Z,2.63
2023-09-17T16:04:02.113Z,3.00
2023-09-17T16:06:29.386Z,2.50
2023-09-17T16:08:56.661Z,2.75
2023-09-17T16:11:24.627Z,2.65
2023-09-17T16:13:52.202Z,2.72
2023-09-17T16:16:19.671Z,2.90
2023-09-17T16:18:46.882Z,2.58
2023-09-17T16:21:15.573Z,2.80
2023-09-17T16:23:42.717Z,2.83
2023-09-17T16:26:09.946Z,2.30
2023-09-17T16:28:37.106Z,3.20
2023-09-17T16:31:04.256Z,2.55
2023-09-17T16:33:31.481Z,2.15
2023-09-17T16:36:00.722Z,2.78
2023-09-17T16:38:27.883Z,2.50
2023-09-17T16:40:56.458Z,2.42
2023-09-17T16:43:23.914Z,2.50
2023-09-17T16:45:51.793Z,2.60
2023-09-17T16:48:19.046Z,2.50
2023-09-17T16:50:46.752Z,2.20
2023-09-17T16:53:13.936Z,2.65
2023-09-17T16:55:41.847Z,2.70
2023-09-17T16:58:09.058Z,2.42
2023-09-17T17:00:36.210Z,2.88
2023-09-17T17:03:03.579Z,2.92
2023-09-17T17:05:31.023Z,2.78
2023-09-17T17:07:59.177Z,2.75
2023-09-17T17:10:26.591Z,2.63
2023-09-17T17:12:53.743Z,2.67
2023-09-17T17:15:21.805Z,2.30
2023-09-17T17:17:48.971Z,2.50
2023-09-17T17:20:16.285Z,2.80
2023-09-17T17:22:44.306Z,2.60
2023-09-17T17:25:11.625Z,2.45
2023-09-17T17:27:38.803Z,2.40
2023-09-17T17:30:11.228Z,3.03
2023-09-17T17:32:40.922Z,3.00
2023-09-17T17:35:08.934Z,2.95
2023-09-17T17:37:36.182Z,2.85
2023-09-17T17:40:03.315Z,2.55
2023-09-17T17:42:30.568Z,2.85
2023-09-17T17:44:57.941Z,2.88
2023-09-17T17:47:25.647Z,2.70
2023-09-17T17:49:54.923Z,2.92
2023-09-17T17:52:22.412Z,3.05
2023-09-17T17:54:49.939Z,3.22
2023-09-17T17:57:18.458Z,3.53
2023-09-17T17:59:46.354Z,3.15
2023-09-17T18:02:14.363Z,2.85
2023-09-17T18:04:41.649Z,2.72
2023-09-17T18:07:08.872Z,3.13
2023-09-17T18:09:36.011Z,2.60
2023-09-17T18:12:03.835Z,2.75
2023-09-17T18:14:31.364Z,2.63
2023-09-17T18:16:58.650Z,2.72
2023-09-17T18:19:25.940Z,3.03
2023-09-17T18:21:53.231Z,2.88
2023-09-17T18:24:24.551Z,3.05
2023-09-17T18:26:54.535Z,2.92
2023-09-17T18:29:24.788Z,2.80
2023-09-17T18:31:52.020Z,2.58
2023-09-17T18:34:19.155Z,3.00
2023-09-17T18:36:46.350Z,2.90
2023-09-17T18:39:14.172Z,2.90
2023-09-17T18:41:41.844Z,2.60
2023-09-17T18:44:09.014Z,3.10
2023-09-17T18:46:36.267Z,3.05
2023-09-17T18:49:03.446Z,3.00
2023-09-17T18:51:30.735Z,3.25
2023-09-17T18:53:57.929Z,3.00
2023-09-17T18:56:25.090Z,3.25
2023-09-17T18:58:52.717Z,3.20
2023-09-17T19:01:20.838Z,3.13
2023-09-17T19:03:48.275Z,3.30
2023-09-17T19:06:15.517Z,3.13
2023-09-17T19:08:42.732Z,3.08
2023-09-17T19:11:09.939Z,3.20
2023-09-17T19:13:37.113Z,3.08
2023-09-17T19:16:04.302Z,3.00
2023-09-17T19:18:31.490Z,3.53
2023-09-17T19:21:13.045Z,2.72
2023-09-17T19:23:41.049Z,3.25
2023-09-17T19:26:09.116Z,3.50
2023-09-17T19:28:36.860Z,3.40
2023-09-17T19:31:04.352Z,3.42
2023-09-17T19:33:32.081Z,3.10
2023-09-17T19:35:59.845Z,3.30
2023-09-17T19:38:27.639Z,3.35
2023-09-17T19:40:54.931Z,3.78
2023-09-17T19:43:22.251Z,3.42
2023-09-17T19:45:54.108Z,3.17
2023-09-17T19:48:21.666Z,3.22
2023-09-17T19:50:49.282Z,3.65
2023-09-17T19:53:19.515Z,3.70
2023-09-17T19:55:47.493Z,3.63
2023-09-17T19:58:14.696Z,4.22
2023-09-17T20:00:42.852Z,3.65
2023-09-17T20:03:10.455Z,4.43
2023-09-17T20:05:38.493Z,4.13
2023-09-17T20:08:08.553Z,4.00
2023-09-17T20:10:40.831Z,4.15
2023-09-17T20:13:08.054Z,4.38
2023-09-17T20:15:35.276Z,3.53
2023-09-17T20:18:02.436Z,4.10
2023-09-17T20:20:31.528Z,3.70
2023-09-17T20:22:58.994Z,3.70
2023-09-17T20:25:27.898Z,4.10
2023-09-17T20:28:03.139Z,3.90
2023-09-17T20:30:31.681Z,3.60
2023-09-17T20:32:58.999Z,4.25
2023-09-17T20:35:26.422Z,3.80
2023-09-17T20:37:53.723Z,3.75
2023-09-17T20:40:20.909Z,4.00
2023-09-17T20:42:48.440Z,3.85
2023-09-17T20:45:18.174Z,3.92
2023-09-17T20:47:46.067Z,3.70
2023-09-17T20:50:13.397Z,4.22
2023-09-17T20:52:40.668Z,4.47
2023-09-17T20:55:09.233Z,4.80
2023-09-17T20:57:36.552Z,5.20
2023-09-17T21:00:08.998Z,4.75
2023-09-17T21:02:36.449Z,4.72
2023-09-17T21:05:03.908Z,4.50
2023-09-17T21:07:31.108Z,4.25
2023-09-17T21:09:58.364Z,4.43
2023-09-17T21:12:25.697Z,4.13
2023-09-17T21:14:52.810Z,4.35
2023-09-17T21:17:20.105Z,4.15
2023-09-17T21:19:47.360Z,4.32
2023-09-17T21:22:15.747Z,4.70
2023-09-17T21:24:42.996Z,4.38
2023-09-17T21:27:10.166Z,4.43
2023-09-17T21:29:37.472Z,4.47
2023-09-17T21:32:05.093Z,4.25
2023-09-17T21:34:32.845Z,4.30
2023-09-17T21:37:00.116Z,4.72
2023-09-17T21:39:29.102Z,4.70
2023-09-17T21:41:57.424Z,4.65
2023-09-17T21:44:25.165Z,4.88
2023-09-17T21:46:56.038Z,4.63
2023-09-17T21:49:23.392Z,4.40
2023-09-17T21:51:50.581Z,4.65
2023-09-17T21:54:18.404Z,4.78
2023-09-17T21:56:46.153Z,4.53
2023-09-17T21:59:13.330Z,4.60
2023-09-17T22:01:40.474Z,4.60
2023-09-17T22:04:07.762Z,5.30
2023-09-17T22:06:34.887Z,5.03
2023-09-17T22:09:06.339Z,4.93
2023-09-17T22:11:34.698Z,4.93
2023-09-17T22:14:02.126Z,4.70
2023-09-17T22:16:29.311Z,4.70
2023-09-17T22:18:56.918Z,4.90
2023-09-17T22:21:24.055Z,5.20
2023-09-17T22:23:51.201Z,5.00
2023-09-17T22:26:18.389Z,5.10
2023-09-17T22:28:45.768Z,5.20
2023-09-17T22:31:14.037Z,4.90
2023-09-17T22:33:43.130Z,4.77
2023-09-17T22:36:10.958Z,5.20
2023-09-17T22:38:40.591Z,5.27
2023-09-17T22:41:07.914Z,5.10
2023-09-17T22:43:35.117Z,5.50
2023-09-17T22:46:05.885Z,5.07
2023-09-17T22:48:33.191Z,5.40
2023-09-17T22:51:01.628Z,4.90
2023-09-17T22:53:28.896Z,5.50
2023-09-17T22:55:56.160Z,5.30
2023-09-17T22:58:23.453Z,5.43
2023-09-17T23:00:50.682Z,5.30
2023-09-17T23:03:17.805Z,5.83
2023-09-17T23:05:45.183Z,5.67
2023-09-17T23:08:12.378Z,5.40
2023-09-17T23:10:39.572Z,5.40
2023-09-17T23:13:09.175Z,5.67
2023-09-17T23:15:36.361Z,5.20
2023-09-17T23:18:03.671Z,5.70
2023-09-17T23:20:31.015Z,5.60
2023-09-17T23:22:58.408Z,5.47
2023-09-17T23:25:26.683Z,5.90
2023-09-17T23:27:54.028Z,5.63
2023-09-17T23:30:22.558Z,6.00
2023-09-17T23:32:50.565Z,5.47
2023-09-17T23:35:18.022Z,5.83
2023-09-17T23:37:45.423Z,5.77
2023-09-17T23:40:12.923Z,6.30
2023-09-17T23:42:40.168Z,6.13
2023-09-17T23:45:07.660Z,6.50
2023-09-17T23:47:35.094Z,6.27
2023-09-17T23:50:02.697Z,6.23
2023-09-17T23:52:30.124Z,6.30
2023-09-17T23:54:57.295Z,5.70
2023-09-17T23:57:24.449Z,6.27
2023-09-17T23:59:51.638Z,6.23
